Terminal Aerodrome Forecast
Issued by NWS

Home | Current Version | Previous Version | Text Only | Print | Product List | Glossary Off
Versions: 1 2 3 4 5 6 7 8 9 10 11 12 13 14 15

000
FTUS43 KOAX 142320
TAFCDR
TAF
KCDR 142320Z 1500/1524 14012KT P6SM VCTS SCT070CB OVC250
      TEMPO 1500/1502 VRB05G30KT 5SM TSRA BKN070CB
     FM150500 16010KT P6SM BKN150
     FM151800 02014KT P6SM SCT060=

USA.gov is the U.S. government's official web portal to all federal, state and local government web resources and services.